Portada
METAR-TAF:

METAR-TAF

Aeroports :

Trang, Tailàndia

latitud: 07-31N, longitud: 099-37E, altitud: 14 m

Observació

L'informe es va fer fa 1 hora i 5 minuts, a les 10:00 UTC
Vent 10 kt del Est/Nord-Est
Temperatura 27°C
Humitat 74%
Pressió 1009 hPa
Visibilitat 10 km o més
Núvols disperses a una alçada de 2000 ft

METAR: VTST 071000Z 06010KT 9999 SCT020 27/22 Q1009 NOSIG

Hora: 18:05 (11:05 UTC)

Pronòstic

L'informe es va fer fa 6 hores i 5 minuts, a les 05:00 UTC
Pronòstic vàlid del 07 a les 06 UTC al 08 a les 06 UTC
Vent 10 kt del Est/Nord-Est
Visibilitat 10 km o més
Escasses núvols a una alçada de 2000 ft
Temporalment
l' 07 a les 06 UTC al 07 a les 12 UTC
Vent 10 kt del Est/Nord-Est amb ràfegues de 25 kt

TAF: VTST 070500Z 0706/0806 06010KT 9999 FEW020 TEMPO 0706/0712 06010G25KT

Observacions i pronòstics meteorològics de més de 4000 aeroports (METAR i TAF).

Les estacions disponibles són els punts grocs i vermells al mapa.

Posi el ratolí al punt desitjat per veure el nom de l'estació.

Feu clic per veure les observacions i els pronòstics meteorològics.

Per canviar el mapa: feu clic els botons verds amb una creu de color negre per apropar; al botó verd amb un guió per allunyar la imatge; o en les fletxes verdes per a mapes adjacents.


METAR-TAF: